Time;durP1;ratioP1;P1;durP2;ratioP2;P2;SDS_P1;SDS_P2;PMS_P1;PMS_P2;Temp;Humidity;BMP_temperature;BMP_pressure;BME280_temperature;BME280_humidity;BME280_pressure;Samples;Min_cycle;Max_cycle;Signal;HPM_P1;HPM_P2
2022/04/01 00:02:21;;;;;;;8.80;6.47;;;;;;;6.60;100.00;93038.53;5098325;28;20218;-65
2022/04/01 00:04:46;;;;;;;11.13;7.30;;;;;;;6.51;100.00;93041.88;5098450;28;20186;-65
2022/04/01 00:07:12;;;;;;;8.80;5.90;;;;;;;6.43;100.00;93040.59;5098656;28;20202;-67
2022/04/01 00:09:38;;;;;;;9.03;6.27;;;;;;;6.65;100.00;93040.69;5098333;28;20274;-67
2022/04/01 00:12:07;;;;;;;8.20;6.47;;;;;;;6.84;100.00;93034.25;5098537;28;20203;-68
2022/04/01 00:14:33;;;;;;;9.00;5.90;;;;;;;6.93;100.00;93040.50;5098450;28;20272;-69
2022/04/01 00:16:59;;;;;;;8.00;6.10;;;;;;;8.73;100.00;93030.09;5098030;28;20251;-69
2022/04/01 00:19:25;;;;;;;9.43;6.40;;;;;;;7.38;100.00;93034.75;5097960;28;20201;-69
2022/04/01 00:21:50;;;;;;;7.37;6.20;;;;;;;7.38;100.00;93036.69;5097797;28;20206;-69
2022/04/01 00:24:16;;;;;;;8.97;6.70;;;;;;;7.40;100.00;93040.50;5098598;28;20193;-58
2022/04/01 00:26:42;;;;;;;7.63;6.27;;;;;;;7.17;100.00;93043.59;5097779;28;20201;-58
2022/04/01 00:29:15;;;;;;;6.93;5.67;;;;;;;7.35;100.00;93043.75;5097883;28;20262;-58
2022/04/01 00:31:48;;;;;;;6.00;4.83;;;;;;;7.24;100.00;93040.66;5097934;28;20213;-58
2022/04/01 00:34:17;;;;;;;5.87;4.60;;;;;;;6.92;100.00;93038.25;5098699;28;20205;-59
2022/04/01 00:36:48;;;;;;;8.53;4.63;;;;;;;6.90;100.00;93035.22;5098038;28;20283;-58
2022/04/01 00:39:15;;;;;;;5.60;4.30;;;;;;;6.86;100.00;93045.44;5098199;28;20229;-58
2022/04/01 00:41:44;;;;;;;6.37;4.53;;;;;;;7.05;100.00;93040.94;5097947;28;20295;-66
2022/04/01 00:44:13;;;;;;;4.93;4.33;;;;;;;6.95;100.00;93037.38;5097967;28;20230;-69
2022/04/01 00:46:40;;;;;;;8.87;4.90;;;;;;;6.89;100.00;93039.13;5097775;28;20203;-69
2022/04/01 00:49:05;;;;;;;7.80;4.90;;;;;;;6.81;100.00;93040.53;5097883;28;20206;-72
2022/04/01 00:51:31;;;;;;;6.13;5.37;;;;;;;6.97;100.00;93040.41;5116024;28;20199;-75
2022/04/01 00:53:58;;;;;;;6.23;4.63;;;;;;;6.93;100.00;93039.78;5098406;28;20228;-72
2022/04/01 00:56:30;;;;;;;6.70;4.87;;;;;;;6.99;100.00;93038.00;5097758;28;20225;-72
2022/04/01 00:58:56;;;;;;;6.93;4.50;;;;;;;7.05;100.00;93036.25;5098049;28;20234;-71
2022/04/01 01:01:22;;;;;;;8.10;5.17;;;;;;;7.18;100.00;93033.53;5097922;28;20190;-63
2022/04/01 01:03:47;;;;;;;6.17;5.27;;;;;;;7.81;100.00;93031.28;5097243;28;20197;-62
2022/04/01 01:06:12;;;;;;;7.23;5.27;;;;;;;8.04;100.00;93028.88;5097100;28;20209;-62
2022/04/01 01:08:38;;;;;;;7.43;5.33;;;;;;;8.20;100.00;93025.91;5097451;28;20205;-62
2022/04/01 01:11:04;;;;;;;6.37;4.73;;;;;;;8.04;100.00;93014.50;5097202;28;20202;-62
2022/04/01 01:13:29;;;;;;;5.30;4.70;;;;;;;7.98;100.00;93021.75;5097819;28;20201;-62
2022/04/01 01:15:56;;;;;;;6.13;5.17;;;;;;;7.72;100.00;93017.66;5097456;28;20195;-62
2022/04/01 01:18:21;;;;;;;6.20;5.30;;;;;;;7.65;100.00;93024.06;5097161;28;20202;-70
2022/04/01 01:20:48;;;;;;;6.00;5.00;;;;;;;7.49;100.00;93020.78;5097575;28;20193;-60
2022/04/01 01:23:13;;;;;;;6.57;4.77;;;;;;;7.19;100.00;93019.50;5097217;28;20199;-59
2022/04/01 01:25:39;;;;;;;7.17;5.07;;;;;;;7.08;100.00;93019.13;5096175;28;20223;-60
2022/04/01 01:28:06;;;;;;;8.57;4.70;;;;;;;7.00;100.00;93027.94;5096534;28;20197;-60
2022/04/01 01:30:31;;;;;;;7.40;5.13;;;;;;;6.90;100.00;93024.38;5097117;28;20285;-60
2022/04/01 01:32:56;;;;;;;10.27;4.83;;;;;;;6.70;100.00;93018.44;5114880;28;20228;-59
2022/04/01 01:35:22;;;;;;;7.67;4.77;;;;;;;6.71;100.00;93019.97;5097496;28;20282;-59
2022/04/01 01:37:47;;;;;;;6.47;4.33;;;;;;;6.93;100.00;93020.03;5115001;28;20207;-68
2022/04/01 01:40:12;;;;;;;7.20;5.33;;;;;;;10.52;100.00;92986.88;5097260;28;20202;-63
2022/04/01 01:42:38;;;;;;;6.80;5.30;;;;;;;9.62;100.00;92996.00;5097344;28;20203;-63
2022/04/01 01:45:05;;;;;;;7.43;5.97;;;;;;;9.94;100.00;92987.19;5096862;28;20203;-63
2022/04/01 01:47:31;;;;;;;6.67;5.30;;;;;;;14.49;100.00;92969.31;5096876;28;20198;-63
2022/04/01 01:55:27;;;;;;;7.87;5.93;;;;;;;18.63;100.00;92984.97;5115054;28;20181;-67
2022/04/01 01:57:52;;;;;;;7.30;5.40;;;;;;;11.18;100.00;93017.63;5097091;28;20215;-58
2022/04/01 02:00:22;;;;;;;7.67;5.37;;;;;;;17.02;100.00;92996.34;5096758;28;20199;-58
2022/04/01 02:02:47;;;;;;;6.43;5.20;;;;;;;15.81;100.00;92992.13;5096447;28;20240;-58
2022/04/01 02:05:13;;;;;;;7.10;5.30;;;;;;;14.85;100.00;92996.09;5096382;28;20229;-57
2022/04/01 02:07:39;;;;;;;7.27;5.47;;;;;;;9.27;100.00;93024.78;5096136;28;20203;-58
2022/04/01 02:10:05;;;;;;;6.67;5.50;;;;;;;7.15;100.00;93037.88;5096732;28;20198;-59
2022/04/01 02:12:30;;;;;;;6.90;5.27;;;;;;;8.02;100.00;93034.00;5096290;28;20330;-56
2022/04/01 02:14:56;;;;;;;6.73;4.90;;;;;;;7.96;100.00;93049.34;5096537;28;20197;-55
2022/04/01 02:17:22;;;;;;;6.60;5.17;;;;;;;8.00;100.00;93049.97;5096602;28;20213;-65
2022/04/01 02:19:49;;;;;;;7.97;5.30;;;;;;;9.60;100.00;93042.03;5096450;28;20345;-65
2022/04/01 02:22:15;;;;;;;7.33;6.00;;;;;;;9.97;100.00;93046.25;5096691;28;20237;-65
2022/04/01 02:24:41;;;;;;;8.10;5.70;;;;;;;9.33;100.00;93036.56;5096130;28;20200;-65
2022/04/01 02:27:07;;;;;;;7.23;5.90;;;;;;;11.43;100.00;93036.28;5096752;28;20212;-65
2022/04/01 02:29:32;;;;;;;10.83;8.03;;;;;;;14.57;100.00;93039.06;5096600;28;20199;-65
2022/04/01 02:31:58;;;;;;;7.23;5.43;;;;;;;10.18;100.00;93041.09;5096239;28;20213;-68
2022/04/01 02:34:25;;;;;;;5.77;4.77;;;;;;;13.32;100.00;93050.06;5096145;28;20254;-63
2022/04/01 02:36:51;;;;;;;6.00;4.30;;;;;;;13.44;100.00;93052.47;5096316;28;20209;-64
2022/04/01 02:39:17;;;;;;;5.30;4.57;;;;;;;17.04;100.00;93060.03;5099265;28;20243;-64
2022/04/01 02:41:42;;;;;;;6.37;4.77;;;;;;;15.22;100.00;93040.06;5099789;28;20235;-64
2022/04/01 02:44:08;;;;;;;5.00;4.20;;;;;;;12.80;100.00;93046.28;5099647;28;20196;-64
2022/04/01 02:46:39;;;;;;;5.07;4.53;;;;;;;11.70;100.00;93055.25;5118016;28;20228;-64
2022/04/01 02:49:07;;;;;;;7.47;6.30;;;;;;;11.13;100.00;93059.22;5099607;28;20223;-64
2022/04/01 02:51:36;;;;;;;9.80;7.37;;;;;;;9.47;100.00;93060.50;5099748;28;20209;-65
2022/04/01 02:54:03;;;;;;;4.97;4.03;;;;;;;9.49;100.00;93062.75;5099928;28;20192;-62
2022/04/01 02:56:30;;;;;;;4.33;3.60;;;;;;;10.07;100.00;93058.69;5099811;28;20235;-63
2022/04/01 02:58:55;;;;;;;4.67;4.03;;;;;;;8.62;100.00;93062.41;5099580;28;20297;-63
2022/04/01 03:01:21;;;;;;;4.57;3.83;;;;;;;8.32;100.00;93057.75;5099703;28;20201;-62
2022/04/01 03:03:46;;;;;;;6.53;4.57;;;;;;;8.83;100.00;93056.16;5099573;28;20249;-63
2022/04/01 03:06:12;;;;;;;4.07;3.67;;;;;;;8.96;100.00;93048.59;5099155;28;20200;-62
2022/04/01 03:08:40;;;;;;;3.87;3.37;;;;;;;8.52;100.00;93063.56;5099808;28;20189;-68
2022/04/01 03:11:06;;;;;;;5.17;4.00;;;;;;;8.55;100.00;93051.81;5099385;28;20199;-59
2022/04/01 03:13:32;;;;;;;3.70;3.20;;;;;;;8.22;100.00;93056.19;5099103;28;20224;-68
2022/04/01 03:15:57;;;;;;;4.43;3.10;;;;;;;8.08;100.00;93064.81;5099077;28;20197;-68
2022/04/01 03:18:23;;;;;;;4.70;2.70;;;;;;;8.46;100.00;93059.94;5099007;28;20204;-68
2022/04/01 03:20:48;;;;;;;3.30;3.00;;;;;;;8.35;100.00;93065.03;5099144;28;20200;-68
2022/04/01 03:23:15;;;;;;;3.00;2.70;;;;;;;7.93;100.00;93065.78;5099102;28;20182;-68
2022/04/01 03:25:41;;;;;;;3.30;3.00;;;;;;;7.87;100.00;93068.31;5099125;28;20219;-68
2022/04/01 03:28:07;;;;;;;3.43;2.73;;;;;;;7.81;100.00;93059.22;5099370;28;20214;-69
2022/04/01 03:30:32;;;;;;;2.90;2.60;;;;;;;7.67;100.00;93065.16;5098867;28;20202;-69
2022/04/01 03:32:58;;;;;;;3.37;2.73;;;;;;;8.09;100.00;93055.44;5099119;28;20195;-69
2022/04/01 03:35:24;;;;;;;2.53;2.33;;;;;;;4.93;100.00;93055.66;5098571;28;20188;-69
2022/04/01 03:37:50;;;;;;;3.10;2.80;;;;;;;4.68;100.00;93050.84;5098543;28;20273;-69
2022/04/01 03:40:16;;;;;;;3.07;2.77;;;;;;;4.71;100.00;93060.06;5099060;28;20250;-69
2022/04/01 03:42:47;;;;;;;3.40;2.50;;;;;;;4.76;100.00;93049.50;5098598;28;20188;-69
2022/04/01 03:45:13;;;;;;;3.67;3.20;;;;;;;4.81;100.00;93054.38;5099217;28;20279;-58
2022/04/01 03:47:51;;;;;;;4.47;2.60;;;;;;;4.82;100.00;93049.75;5098497;28;20215;-60
2022/04/01 03:50:22;;;;;;;3.07;2.77;;;;;;;4.80;100.00;93052.88;5097729;28;20175;-62
2022/04/01 03:52:48;;;;;;;3.67;2.87;;;;;;;4.80;100.00;93044.00;5098807;28;20219;-63
2022/04/01 03:55:14;;;;;;;4.67;2.70;;;;;;;4.74;100.00;93043.00;5098850;28;20195;-63
2022/04/01 03:57:41;;;;;;;3.37;2.97;;;;;;;4.55;100.00;93039.19;5098292;28;20216;-63
2022/04/01 04:00:12;;;;;;;3.03;2.73;;;;;;;4.78;100.00;93043.66;5098475;28;20200;-64
2022/04/01 04:02:40;;;;;;;3.20;2.87;;;;;;;4.43;100.00;93045.28;5098538;28;20206;-64
2022/04/01 04:05:09;;;;;;;3.80;2.90;;;;;;;4.28;100.00;93054.13;5098565;28;20192;-69
2022/04/01 04:07:35;;;;;;;2.90;2.60;;;;;;;4.06;100.00;93058.47;5098294;28;20200;-65
2022/04/01 04:10:02;;;;;;;3.33;3.03;;;;;;;4.13;100.00;93047.53;5098599;28;20187;-66
2022/04/01 04:12:30;;;;;;;3.47;3.17;;;;;;;4.26;100.00;93056.50;5098576;28;20200;-66
2022/04/01 04:14:57;;;;;;;3.53;3.23;;;;;;;4.14;100.00;93054.44;5098213;28;20179;-65
2022/04/01 04:17:37;;;;;;;3.73;3.30;;;;;;;4.11;100.00;93052.59;5098027;28;20250;-64
2022/04/01 04:20:21;;;;;;;3.33;3.03;;;;;;;4.00;100.00;93054.78;5098449;28;20199;-63
2022/04/01 04:22:53;;;;;;;3.20;2.90;;;;;;;3.97;100.00;93061.00;5098175;28;20231;-60
2022/04/01 04:25:23;;;;;;;3.37;3.07;;;;;;;3.70;100.00;93057.69;5098185;28;20207;-59
2022/04/01 04:27:57;;;;;;;4.13;3.23;;;;;;;4.17;100.00;93059.00;5098124;28;20203;-60
2022/04/01 04:30:34;;;;;;;4.07;3.10;;;;;;;3.87;100.00;93061.97;5097847;28;20195;-60
2022/04/01 04:33:09;;;;;;;3.47;2.90;;;;;;;4.02;100.00;93068.59;5097594;28;20180;-60
2022/04/01 04:35:37;;;;;;;3.20;2.90;;;;;;;3.40;100.00;93051.34;5098461;28;20195;-60
2022/04/01 04:38:04;;;;;;;2.67;2.47;;;;;;;3.36;100.00;93061.44;5097959;28;20207;-59
2022/04/01 04:40:31;;;;;;;4.43;2.90;;;;;;;3.49;100.00;93066.97;5097411;28;20199;-61
2022/04/01 04:42:57;;;;;;;3.23;2.93;;;;;;;3.47;100.00;93072.78;5116247;28;20192;-60
2022/04/01 04:45:25;;;;;;;3.17;2.80;;;;;;;3.41;100.00;93069.06;5097595;28;20202;-61
2022/04/01 04:47:52;;;;;;;2.80;2.43;;;;;;;3.49;100.00;93072.38;5097808;28;20265;-61
2022/04/01 04:50:18;;;;;;;2.67;2.23;;;;;;;3.58;100.00;93078.75;5097515;28;20192;-61
2022/04/01 04:52:49;;;;;;;3.43;2.50;;;;;;;3.74;100.00;93074.56;5098175;28;20183;-62
2022/04/01 04:55:14;;;;;;;3.63;2.20;;;;;;;3.93;100.00;93076.50;5097345;28;20202;-61
2022/04/01 04:57:42;;;;;;;3.23;2.90;;;;;;;4.72;100.00;93066.97;5097383;28;20207;-62
2022/04/01 05:00:08;;;;;;;2.57;2.37;;;;;;;4.93;100.00;93077.28;5097113;28;20200;-61
2022/04/01 05:02:49;;;;;;;2.60;2.33;;;;;;;6.76;100.00;93079.06;5097969;28;20288;-70
2022/04/01 05:05:24;;;;;;;4.07;2.90;;;;;;;7.06;100.00;93069.59;5097859;28;20203;-69
2022/04/01 05:08:18;;;;;;;3.57;2.77;;;;;;;10.37;100.00;93062.41;5097681;28;20203;-69
2022/04/01 05:10:53;;;;;;;2.90;2.60;;;;;;;5.82;100.00;93080.72;5097439;28;20203;-69
2022/04/01 05:13:31;;;;;;;3.30;2.77;;;;;;;5.31;100.00;93086.34;5097015;28;20195;-69
2022/04/01 05:16:05;;;;;;;3.20;2.80;;;;;;;5.26;100.00;93094.97;5097593;28;20252;-70
2022/04/01 05:18:42;;;;;;;3.83;2.83;;;;;;;5.20;100.00;93096.66;5097731;28;20287;-70
2022/04/01 05:21:23;;;;;;;3.00;2.53;;;;;;;4.90;100.00;93110.56;5096939;28;20226;-60
2022/04/01 05:24:04;;;;;;;4.17;2.90;;;;;;;4.88;100.00;93107.53;5097247;28;20191;-61
2022/04/01 05:26:40;;;;;;;2.60;2.30;;;;;;;4.99;100.00;93111.50;5096857;28;20207;-61
2022/04/01 05:29:13;;;;;;;2.80;2.50;;;;;;;4.85;100.00;93113.78;5097372;28;20299;-60
2022/04/01 05:32:00;;;;;;;2.93;2.50;;;;;;;4.91;100.00;93117.47;5096845;28;20191;-62
2022/04/01 05:34:49;;;;;;;2.90;2.37;;;;;;;4.74;100.00;93113.28;5096679;28;20191;-60
2022/04/01 05:37:15;;;;;;;2.10;1.83;;;;;;;4.46;100.00;93124.72;5096902;28;20218;-59
2022/04/01 05:39:47;;;;;;;2.50;2.23;;;;;;;4.50;100.00;93120.00;5097016;28;20187;-62
2022/04/01 05:42:14;;;;;;;2.47;1.93;;;;;;;4.31;100.00;93118.13;5097565;28;20241;-61
2022/04/01 05:44:42;;;;;;;2.50;2.20;;;;;;;4.46;100.00;93124.72;5096912;28;20192;-64
2022/04/01 05:47:08;;;;;;;2.50;2.10;;;;;;;4.52;100.00;93120.34;5096669;28;20195;-59
2022/04/01 05:49:40;;;;;;;4.43;2.47;;;;;;;4.64;100.00;93125.09;5097201;28;20181;-61
2022/04/01 05:52:08;;;;;;;2.67;2.30;;;;;;;4.52;100.00;93115.69;5097179;28;20199;-62
2022/04/01 05:54:34;;;;;;;3.07;2.30;;;;;;;4.51;100.00;93116.13;5097274;28;20287;-64
2022/04/01 05:57:02;;;;;;;2.90;2.60;;;;;;;4.54;100.00;93126.06;5096892;28;20211;-61
2022/04/01 05:59:28;;;;;;;3.00;2.47;;;;;;;4.77;100.00;93134.81;5096265;28;20282;-60
2022/04/01 06:02:27;;;;;;;2.93;2.50;;;;;;;4.72;100.00;93132.63;5096415;28;20219;-60
2022/04/01 06:04:59;;;;;;;2.30;1.87;;;;;;;4.67;100.00;93135.06;5096384;28;20191;-61
2022/04/01 06:07:42;;;;;;;2.70;1.87;;;;;;;4.53;100.00;93141.53;5096549;28;20225;-60
2022/04/01 06:10:18;;;;;;;2.30;2.00;;;;;;;4.66;100.00;93130.84;5096701;28;20207;-60
2022/04/01 06:12:56;;;;;;;2.67;2.20;;;;;;;4.67;100.00;93135.84;5095296;28;20222;-60
2022/04/01 06:15:31;;;;;;;2.80;2.00;;;;;;;4.72;100.00;93140.72;5096448;28;20199;-61
2022/04/01 06:18:14;;;;;;;2.43;2.23;;;;;;;4.64;100.00;93135.91;5096340;28;20214;-62
2022/04/01 06:20:41;;;;;;;2.43;2.07;;;;;;;4.48;100.00;93150.13;5096522;28;20206;-63
2022/04/01 06:23:09;;;;;;;3.30;2.30;;;;;;;4.53;100.00;93146.97;5096372;28;20199;-62
2022/04/01 06:25:43;;;;;;;2.67;2.07;;;;;;;4.66;100.00;93150.50;5095815;28;20200;-63
2022/04/01 06:28:16;;;;;;;1.90;1.70;;;;;;;4.57;100.00;93144.94;5096695;28;20206;-61
2022/04/01 06:30:44;;;;;;;1.93;1.77;;;;;;;4.55;100.00;93149.25;5114047;28;20220;-73
2022/04/01 06:33:51;;;;;;;2.30;2.00;;;;;;;4.72;100.00;93142.66;5096439;28;20196;-63
2022/04/01 06:36:28;;;;;;;1.87;1.73;;;;;;;4.86;100.00;93142.34;5073871;28;20214;-60
2022/04/01 06:39:03;;;;;;;2.00;1.80;;;;;;;4.84;100.00;93155.53;5096140;28;20180;-59
2022/04/01 06:41:31;;;;;;;2.37;1.83;;;;;;;4.98;100.00;93155.16;5096535;28;20562;-56
2022/04/01 06:43:57;;;;;;;3.37;1.70;;;;;;;4.80;100.00;93160.22;5096188;28;20200;-58
2022/04/01 06:46:22;;;;;;;2.03;1.80;;;;;;;4.80;100.00;93165.63;5095960;28;20233;-57
2022/04/01 06:48:47;;;;;;;2.23;1.90;;;;;;;4.86;100.00;93163.97;5095937;28;20195;-74
2022/04/01 06:51:14;;;;;;;2.37;2.10;;;;;;;4.80;100.00;93176.44;5096187;28;20200;-60
2022/04/01 06:53:41;;;;;;;2.40;1.97;;;;;;;4.74;100.00;93167.34;5095955;28;20204;-76
2022/04/01 06:56:08;;;;;;;2.23;1.87;;;;;;;4.74;100.00;93167.34;5096478;28;20279;-75
2022/04/01 06:58:33;;;;;;;2.13;1.60;;;;;;;4.92;100.00;93156.88;5095974;28;20188;-75
2022/04/01 07:00:59;;;;;;;2.43;1.60;;;;;;;5.01;100.00;93165.16;5095692;28;20195;-75
2022/04/01 07:03:24;;;;;;;4.50;1.70;;;;;;;4.93;100.00;93163.81;5096072;28;20196;-75
2022/04/01 07:05:51;;;;;;;1.97;1.70;;;;;;;5.11;100.00;93164.91;5095929;28;20249;-73
2022/04/01 07:08:17;;;;;;;2.63;1.80;;;;;;;4.93;100.00;93159.16;5095715;28;20176;-74
2022/04/01 07:10:42;;;;;;;2.27;1.90;;;;;;;4.96;100.00;93168.38;5096105;28;20196;-70
2022/04/01 07:13:08;;;;;;;2.47;2.07;;;;;;;4.98;100.00;93171.41;5095899;28;20191;-68
2022/04/01 07:15:34;;;;;;;2.07;1.70;;;;;;;4.73;100.00;93171.22;5095587;28;20196;-68
2022/04/01 07:17:59;;;;;;;2.03;1.77;;;;;;;5.08;100.00;93170.38;5095537;28;20207;-68
2022/04/01 07:20:25;;;;;;;1.60;1.50;;;;;;;5.17;100.00;93163.19;5095516;28;20195;-68
2022/04/01 07:22:51;;;;;;;1.90;1.60;;;;;;;5.12;100.00;93171.84;5095424;28;20211;-69
2022/04/01 07:25:17;;;;;;;3.33;1.80;;;;;;;4.96;100.00;93169.09;5097738;28;20219;-67
2022/04/01 07:27:42;;;;;;;1.60;1.50;;;;;;;4.97;100.00;93169.88;5098914;28;20233;-64
2022/04/01 07:30:08;;;;;;;2.17;1.53;;;;;;;5.17;100.00;93176.00;5099405;28;20208;-61
2022/04/01 07:32:35;;;;;;;2.17;1.50;;;;;;;5.02;100.00;93177.47;5099131;28;20192;-62
2022/04/01 07:35:04;;;;;;;2.37;1.63;;;;;;;5.08;100.00;93170.38;5098898;28;20235;-62
2022/04/01 07:37:31;;;;;;;2.23;1.63;;;;;;;4.66;100.00;93174.09;5098276;28;20231;-62
2022/04/01 07:39:57;;;;;;;1.77;1.67;;;;;;;5.08;100.00;93170.38;5099240;28;20227;-62
2022/04/01 07:42:24;;;;;;;1.70;1.30;;;;;;;5.07;100.00;93174.28;5098882;28;20200;-62
2022/04/01 07:44:50;;;;;;;2.03;1.50;;;;;;;5.08;100.00;93170.38;5099261;28;20208;-68
2022/04/01 07:47:18;;;;;;;1.40;1.30;;;;;;;5.06;100.00;93170.06;5098411;28;20227;-58
2022/04/01 07:49:44;;;;;;;1.70;1.50;;;;;;;4.98;100.00;93179.50;5099051;28;20196;-69
2022/04/01 07:52:11;;;;;;;1.20;1.10;;;;;;;5.08;100.00;93184.69;5098614;28;20217;-68
2022/04/01 07:54:38;;;;;;;1.50;1.37;;;;;;;5.37;100.00;93182.06;5098750;28;20195;-68
2022/04/01 07:57:04;;;;;;;1.43;1.33;;;;;;;5.71;100.00;93179.63;5098603;28;20211;-69
2022/04/01 07:59:30;;;;;;;1.67;1.37;;;;;;;5.66;100.00;93188.28;5098497;28;20204;-69
2022/04/01 08:01:56;;;;;;;3.67;1.80;;;;;;;5.80;100.00;93182.50;5098280;28;20210;-68
2022/04/01 08:04:22;;;;;;;1.67;1.57;;;;;;;5.31;100.00;93189.91;5098594;28;20204;-70
2022/04/01 08:06:48;;;;;;;2.30;1.30;;;;;;;5.13;100.00;93189.56;5098228;28;20229;-64
2022/04/01 08:09:13;;;;;;;1.50;1.10;;;;;;;5.02;100.00;93188.28;5098252;28;20245;-64
2022/04/01 08:11:38;;;;;;;1.40;1.27;;;;;;;5.26;100.00;93186.97;5116616;28;20192;-64
2022/04/01 08:14:04;;;;;;;1.40;1.30;;;;;;;5.30;100.00;93195.75;5098508;28;20302;-64
2022/04/01 08:16:35;;;;;;;2.10;1.40;;;;;;;5.26;100.00;93195.84;5098314;28;20218;-64
2022/04/01 08:19:03;;;;;;;1.70;1.20;;;;;;;5.20;100.00;93200.22;5098505;28;20192;-64
2022/04/01 08:21:28;;;;;;;1.40;1.20;;;;;;;5.36;100.00;93197.50;5098037;28;20192;-73
2022/04/01 08:23:54;;;;;;;1.30;1.20;;;;;;;5.32;100.00;93207.66;5098044;28;20196;-68
2022/04/01 08:26:19;;;;;;;1.50;1.40;;;;;;;5.25;100.00;93207.09;5097770;28;20196;-68
2022/04/01 08:28:44;;;;;;;1.63;1.10;;;;;;;5.30;100.00;93206.56;5097837;28;20272;-68
2022/04/01 08:31:10;;;;;;;1.00;0.93;;;;;;;5.23;100.00;93204.03;5098551;28;20204;-67
2022/04/01 08:33:37;;;;;;;2.23;1.03;;;;;;;5.10;100.00;93214.03;5098118;28;20191;-68
2022/04/01 08:36:03;;;;;;;1.53;1.30;;;;;;;5.27;100.00;93210.13;5097384;28;20229;-68
2022/04/01 08:38:28;;;;;;;1.60;1.30;;;;;;;5.27;100.00;93210.13;5097572;28;20216;-67
2022/04/01 08:40:54;;;;;;;1.60;1.10;;;;;;;5.45;100.00;93215.88;5097654;28;20230;-72
2022/04/01 08:43:33;;;;;;;2.43;1.67;;;;;;;5.67;100.00;93222.28;5097714;28;20215;-63
2022/04/01 08:46:03;;;;;;;1.30;1.20;;;;;;;5.76;100.00;93219.75;5097824;28;20203;-63
2022/04/01 08:48:30;;;;;;;1.60;1.33;;;;;;;5.66;100.00;93218.81;5097980;28;20204;-63
2022/04/01 08:50:56;;;;;;;1.20;1.10;;;;;;;5.63;100.00;93218.91;5097548;28;20195;-63
2022/04/01 08:53:21;;;;;;;2.80;1.30;;;;;;;5.94;100.00;93225.50;5097502;28;20290;-62
2022/04/01 08:55:49;;;;;;;2.10;1.17;;;;;;;6.13;100.00;93227.31;5097536;28;20195;-63
2022/04/01 08:58:19;;;;;;;1.63;0.83;;;;;;;6.28;100.00;93229.22;5097663;28;20214;-72
2022/04/01 09:00:46;;;;;;;1.20;1.10;;;;;;;6.32;100.00;93229.09;5097483;28;20234;-56
2022/04/01 09:03:12;;;;;;;1.67;1.00;;;;;;;6.63;100.00;93222.03;5097794;28;20176;-61
2022/04/01 09:05:44;;;;;;;1.80;1.20;;;;;;;6.85;100.00;93225.66;5097885;28;20200;-61
2022/04/01 09:08:10;;;;;;;2.07;1.10;;;;;;;6.43;100.00;93230.34;5097305;28;20197;-60
2022/04/01 09:10:57;;;;;;;2.63;1.10;;;;;;;6.60;100.00;93233.75;5097324;28;20211;-61
2022/04/01 09:13:26;;;;;;;1.20;1.10;;;;;;;6.76;100.00;93236.38;5097413;28;20197;-65
2022/04/01 09:15:52;;;;;;;1.00;1.00;;;;;;;6.60;100.00;93237.19;5097200;28;20203;-61
2022/04/01 09:18:42;;;;;;;1.20;1.10;;;;;;;6.63;100.00;93243.72;5097800;28;20200;-62
2022/04/01 09:21:09;;;;;;;1.10;1.00;;;;;;;6.78;100.00;93240.16;5097054;28;20191;-63
2022/04/01 09:23:35;;;;;;;1.67;1.20;;;;;;;6.59;100.00;93238.38;5097015;28;20191;-63
2022/04/01 09:26:01;;;;;;;1.50;1.30;;;;;;;6.56;100.00;93233.09;5096817;28;20206;-63
2022/04/01 09:28:30;;;;;;;1.30;1.20;;;;;;;6.92;100.00;93238.97;5097026;28;20241;-63
2022/04/01 09:31:07;;;;;;;1.30;1.20;;;;;;;6.66;100.00;93240.91;5096950;28;20192;-63
2022/04/01 09:33:47;;;;;;;3.77;1.53;;;;;;;6.40;100.00;93241.25;5096954;28;20187;-62
2022/04/01 09:36:17;;;;;;;2.13;1.40;;;;;;;6.28;100.00;93244.69;5115287;28;20218;-63
2022/04/01 09:39:10;;;;;;;2.00;1.50;;;;;;;5.99;100.00;93250.13;5097562;28;20227;-60
2022/04/01 09:41:38;;;;;;;3.23;1.50;;;;;;;5.50;100.00;93253.25;5097061;28;20272;-60
2022/04/01 09:44:11;;;;;;;1.77;1.30;;;;;;;5.36;100.00;93262.44;5096895;28;20188;-61
2022/04/01 09:46:42;;;;;;;1.40;1.30;;;;;;;5.24;100.00;93260.44;5114231;28;20241;-61
2022/04/01 09:49:08;;;;;;;1.60;1.20;;;;;;;5.21;100.00;93266.66;5096599;28;20193;-60
2022/04/01 09:51:34;;;;;;;1.50;1.30;;;;;;;4.89;100.00;93260.47;5096854;28;20196;-61
2022/04/01 09:54:03;;;;;;;2.97;1.10;;;;;;;4.68;100.00;93256.25;5096583;28;20275;-60
2022/04/01 09:56:35;;;;;;;1.30;1.20;;;;;;;4.69;100.00;93260.47;5096780;28;20256;-66
2022/04/01 09:59:04;;;;;;;2.13;1.27;;;;;;;4.70;100.00;93261.25;5096791;28;20198;-66
2022/04/01 10:01:31;;;;;;;1.57;1.47;;;;;;;4.95;100.00;93258.78;5096901;28;20290;-66
2022/04/01 10:03:57;;;;;;;1.07;1.07;;;;;;;4.98;100.00;93255.22;5096330;28;20177;-64
2022/04/01 10:06:23;;;;;;;1.33;1.20;;;;;;;5.12;100.00;93257.63;5114393;28;20249;-64
2022/04/01 10:08:50;;;;;;;1.80;1.00;;;;;;;4.70;100.00;93256.59;5096918;28;20191;-64
2022/04/01 10:11:17;;;;;;;1.13;1.03;;;;;;;4.79;100.00;93261.44;5096535;28;20234;-65
2022/04/01 10:13:44;;;;;;;1.27;1.10;;;;;;;4.94;100.00;93268.06;5096364;28;20234;-71
2022/04/01 10:16:10;;;;;;;1.10;1.00;;;;;;;4.94;100.00;93262.66;5096020;28;20211;-69
2022/04/01 10:18:41;;;;;;;1.20;1.10;;;;;;;5.15;100.00;93278.41;5096207;28;20217;-74
2022/04/01 10:21:07;;;;;;;1.33;1.23;;;;;;;5.17;100.00;93276.06;5096258;28;20207;-65
2022/04/01 10:23:36;;;;;;;1.30;1.20;;;;;;;5.06;100.00;93280.94;5096656;28;20279;-69
2022/04/01 10:26:14;;;;;;;1.20;1.10;;;;;;;4.99;100.00;93275.69;5095995;28;20210;-68
2022/04/01 10:28:43;;;;;;;1.70;1.33;;;;;;;4.95;100.00;93277.72;5096275;28;20176;-75
2022/04/01 10:31:13;;;;;;;6.07;3.03;;;;;;;4.88;100.00;93275.91;5096484;28;20200;-70
2022/04/01 10:33:38;;;;;;;3.13;1.63;;;;;;;5.06;100.00;93283.66;5096031;28;20203;-70
2022/04/01 10:36:22;;;;;;;3.27;1.37;;;;;;;5.06;100.00;93284.41;5096440;28;20291;-67
2022/04/01 10:38:48;;;;;;;30.77;4.43;;;;;;;5.15;100.00;93289.25;5114291;28;20232;-67
2022/04/01 10:41:15;;;;;;;1.90;1.40;;;;;;;5.18;100.00;93288.41;5096088;28;20192;-65
2022/04/01 10:43:47;;;;;;;1.20;1.10;;;;;;;5.29;100.00;93280.81;5096217;28;20221;-66
2022/04/01 10:46:15;;;;;;;2.20;2.00;;;;;;;5.29;100.00;93294.34;5096416;28;20204;-64
2022/04/01 10:52:10;;;;;;;1.77;1.53;;;;;;;5.18;100.00;93293.81;5114418;28;20244;-73
2022/04/01 10:54:42;;;;;;;1.70;1.60;;;;;;;5.16;100.00;93296.16;5095848;28;20203;-76
2022/04/01 10:57:08;;;;;;;1.30;1.20;;;;;;;5.07;100.00;93287.88;5096059;28;20207;-67
2022/04/01 10:59:45;;;;;;;1.30;1.20;;;;;;;5.10;100.00;93287.03;5098486;28;20199;-77
2022/04/01 11:02:15;;;;;;;1.43;1.27;;;;;;;4.92;100.00;93297.47;5100254;28;20200;-75
2022/04/01 11:04:43;;;;;;;1.63;1.20;;;;;;;4.91;100.00;93299.41;5099912;28;20177;-77
2022/04/01 11:07:29;;;;;;;3.50;2.50;;;;;;;4.91;100.00;93304.81;5099344;28;20221;-67
2022/04/01 11:10:00;;;;;;;1.80;1.70;;;;;;;4.97;100.00;93305.09;5099208;28;20203;-59
2022/04/01 11:12:52;;;;;;;1.70;1.50;;;;;;;4.77;100.00;93293.53;5099990;28;20223;-59
2022/04/01 11:15:25;;;;;;;1.33;1.23;;;;;;;4.75;100.00;93304.00;5086077;28;20215;-59
2022/04/01 11:17:57;;;;;;;3.33;2.53;;;;;;;4.82;100.00;93303.84;5099707;28;20227;-60
2022/04/01 11:20:22;;;;;;;3.13;2.10;;;;;;;5.03;100.00;93300.72;5099069;28;20267;-59
2022/04/01 11:22:54;;;;;;;1.50;1.40;;;;;;;5.19;100.00;93300.75;5099605;28;20223;-59
2022/04/01 11:25:22;;;;;;;1.70;1.60;;;;;;;5.29;100.00;93299.75;5098804;28;20246;-61
2022/04/01 11:27:56;;;;;;;1.80;1.50;;;;;;;5.29;100.00;93297.03;5099469;28;20204;-69
2022/04/01 11:30:27;;;;;;;2.17;1.57;;;;;;;5.33;100.00;93300.44;5098688;28;20238;-62
2022/04/01 11:32:57;;;;;;;1.73;1.63;;;;;;;5.48;100.00;93296.22;5099496;28;20196;-62
2022/04/01 11:35:28;;;;;;;1.63;1.40;;;;;;;5.61;100.00;93300.53;5098977;28;20188;-62
2022/04/01 11:37:54;;;;;;;1.90;1.57;;;;;;;5.56;100.00;93297.56;5098157;28;20340;-63
2022/04/01 11:40:27;;;;;;;2.43;1.70;;;;;;;5.54;100.00;93299.94;5097665;28;20244;-63
2022/04/01 11:42:54;;;;;;;1.50;1.40;;;;;;;5.59;100.00;93312.97;5097578;28;20169;-63
2022/04/01 11:45:20;;;;;;;2.67;1.80;;;;;;;5.74;100.00;93303.31;5097335;28;20556;-70
2022/04/01 11:47:46;;;;;;;1.60;1.50;;;;;;;5.87;100.00;93291.41;5097269;28;20195;-71
2022/04/01 11:50:14;;;;;;;1.60;1.50;;;;;;;5.79;100.00;93300.13;5097210;28;20184;-69